| time (UTC) | temp F | wind direction | speed MPH | gust MPH | rain 1hr in | rain 24hr in | rain mn in | humidity % | barometer mb |
| 20260901010059 | 93 | 130 | 0.0 | 3.0 | 0.00 | 0.00 | 0.00 | 37 | 1013.4 |
| 20260901004607 | 95 | 0 | 0.0 | 2.0 | 0.00 | 0.00 | 0.00 | 35 | 1013.3 |
| 20260901003100 | 96 | 123 | 0.0 | 3.0 | 0.00 | 0.00 | 0.00 | 34 | 1013.3 |
| 20260901001603 | 97 | 135 | 0.0 | 3.0 | 0.00 | 0.00 | 0.00 | 32 | 1013.3 |
| 20260901000104 | 98 | 0 | 0.0 | 6.0 | 0.00 | 0.00 | 0.00 | 31 | 1013.2 |
| 20260831234600 | 99 | 159 | 0.0 | 5.0 | 0.00 | 0.00 | 0.00 | 30 | 1013.2 |
| 20260831233108 | 100 | 157 | 1.0 | 7.0 | 0.00 | 0.00 | 0.00 | 30 | 1013.2 |
| 20260831231609 | 101 | 192 | 0.0 | 6.0 | 0.00 | 0.00 | 0.00 | 29 | 1013.1 |
| 20260831230113 | 101 | 196 | 1.0 | 4.0 | 0.00 | 0.00 | 0.00 | 28 | 1013.1 |
| 20260831224605 | 101 | 0 | 1.0 | 8.0 | 0.00 | 0.00 | 0.00 | 28 | 1013.1 |
| 20260831223110 | 102 | 132 | 1.0 | 6.0 | 0.00 | 0.00 | 0.00 | 28 | 1013.2 |
| 20260831221605 | 102 | 0 | 1.0 | 10.0 | 0.00 | 0.00 | 0.00 | 28 | 1013.1 |
| 20260831220126 | 103 | 100 | 1.0 | 11.0 | 0.00 | 0.00 | 0.00 | 27 | 1013.2 |
| 20260831214606 | 103 | 198 | 1.0 | 6.0 | 0.00 | 0.00 | 0.00 | 27 | 1013.4 |
| 20260831213128 | 103 | 202 | 0.0 | 10.0 | 0.00 | 0.00 | 0.00 | 27 | 1013.4 |
| 20260831211611 | 102 | 93 | 1.0 | 10.0 | 0.00 | 0.00 | 0.00 | 27 | 1013.5 |
| 20260831210106 | 103 | 87 | 1.0 | 7.0 | 0.00 | 0.00 | 0.00 | 27 | 1013.6 |
| 20260831204605 | 103 | 195 | 1.0 | 12.0 | 0.00 | 0.00 | 0.00 | 27 | 1013.9 |
| 20260831203115 | 103 | 0 | 2.0 | 9.0 | 0.00 | 0.00 | 0.00 | 28 | 1014.0 |
| 20260831201608 | 103 | 127 | 3.0 | 10.0 | 0.00 | 0.00 | 0.00 | 27 | 1014.3 |
| 20260831200107 | 102 | 222 | 3.0 | 11.0 | 0.00 | 0.00 | 0.00 | 28 | 1014.3 |
| 20260831194603 | 103 | 93 | 0.0 | 10.0 | 0.00 | 0.00 | 0.00 | 29 | 1014.5 |
| 20260831193104 | 103 | 0 | 3.0 | 11.0 | 0.00 | 0.00 | 0.00 | 28 | 1014.7 |
| 20260831191605 | 103 | 90 | 2.0 | 8.0 | 0.00 | 0.00 | 0.00 | 29 | 1014.9 |
| 20260831190111 | 102 | 80 | 1.0 | 8.0 | 0.00 | 0.00 | 0.00 | 29 | 1015.1 |
| 20260831184615 | 102 | 139 | 1.0 | 7.0 | 0.00 | 0.00 | 0.00 | 30 | 1015.1 |
| 20260831183101 | 102 | 231 | 2.0 | 9.0 | 0.00 | 0.00 | 0.00 | 31 | 1015.3 |
| 20260831181606 | 102 | 262 | 1.0 | 7.0 | 0.00 | 0.00 | 0.00 | 32 | 1015.3 |
| 20260831180110 | 101 | 198 | 1.0 | 9.0 | 0.00 | 0.00 | 0.00 | 32 | 1015.6 |
| 20260831174603 | 100 | 179 | 2.0 | 9.0 | 0.00 | 0.00 | 0.00 | 33 | 1015.7 |
| 20260831173102 | 100 | 290 | 1.0 | 6.0 | 0.00 | 0.00 | 0.00 | 32 | 1015.8 |
| 20260831171604 | 99 | 246 | 2.0 | 10.0 | 0.00 | 0.00 | 0.00 | 35 | 1016.0 |
| 20260831170105 | 99 | 129 | 2.0 | 7.0 | 0.00 | 0.00 | 0.00 | 34 | 1016.1 |
| 20260831164627 | 98 | 171 | 1.0 | 7.0 | 0.00 | 0.00 | 0.00 | 36 | 1016.4 |
| 20260831163102 | 98 | 182 | 1.0 | 7.0 | 0.00 | 0.00 | 0.00 | 39 | 1016.3 |
| 20260831161601 | 96 | 0 | 1.0 | 6.0 | 0.00 | 0.00 | 0.00 | 41 | 1016.3 |
| 20260831160106 | 95 | 0 | 1.0 | 4.0 | 0.00 | 0.00 | 0.00 | 43 | 1016.3 |
| 20260831154635 | 94 | 51 | 1.0 | 6.0 | 0.00 | 0.00 | 0.00 | 44 | 1016.4 |
| 20260831153106 | 92 | 79 | 0.0 | 5.0 | 0.00 | 0.00 | 0.00 | 47 | 1016.5 |
| 20260831151617 | 91 | 146 | 1.0 | 5.0 | 0.00 | 0.00 | 0.00 | 48 | 1016.5 |
| 20260831150107 | 90 | 0 | 1.0 | 5.0 | 0.00 | 0.00 | 0.00 | 49 | 1016.5 |
| 20260831144622 | 88 | 0 | 0.0 | 5.0 | 0.00 | 0.00 | 0.00 | 52 | 1016.5 |
| 20260831143119 | 86 | 123 | 0.0 | 4.0 | 0.00 | 0.00 | 0.00 | 56 | 1016.7 |
| 20260831141624 | 83 | 167 | 0.0 | 3.0 | 0.00 | 0.00 | 0.00 | 59 | 1016.6 |
| 20260831140105 | 82 | 133 | 0.0 | 3.0 | 0.00 | 0.00 | 0.00 | 61 | 1016.7 |
| 20260831134605 | 81 | 0 | 0.0 | 3.0 | 0.00 | 0.00 | 0.00 | 62 | 1016.6 |
| 20260831133107 | 79 | 146 | 0.0 | 3.0 | 0.00 | 0.00 | 0.00 | 64 | 1016.5 |
| 20260831131606 | 77 | 0 | 0.0 | 3.0 | 0.00 | 0.00 | 0.00 | 67 | 1016.3 |
| 20260831130110 | 76 | 0 | 0.0 | 3.0 | 0.00 | 0.00 | 0.00 | 69 | 1016.3 |
| 20260831124601 | 73 | 119 | 0.0 | 3.0 | 0.00 | 0.00 | 0.00 | 74 | 1016.1 |
| 20260831123059 | 72 | 0 | 0.0 | 0.0 | 0.00 | 0.00 | 0.00 | 78 | 1016.0 |
| 20260831121601 | 71 | 0 | 0.0 | 0.0 | 0.00 | 0.00 | 0.00 | 80 | 1015.8 |
| 20260831120115 | 71 | 0 | 0.0 | 0.0 | 0.00 | 0.00 | 0.00 | 79 | 1015.7 |
| 20260831114606 | 71 | 0 | 0.0 | 0.0 | 0.00 | 0.00 | 0.00 | 78 | 1015.5 |
| 20260831113108 | 72 | 0 | 0.0 | 0.0 | 0.00 | 0.00 | 0.00 | 77 | 1015.3 |
| 20260831111611 | 72 | 0 | 0.0 | 0.0 | 0.00 | 0.00 | 0.00 | 76 | 1015.2 |
| 20260831110106 | 72 | 0 | 0.0 | 0.0 | 0.00 | 0.00 | 0.00 | 74 | 1015.0 |
| 20260831104602 | 73 | 0 | 0.0 | 0.0 | 0.00 | 0.00 | 0.00 | 74 | 1014.7 |
| 20260831103100 | 73 | 0 | 0.0 | 0.0 | 0.00 | 0.00 | 0.00 | 73 | 1014.6 |
| 20260831101606 | 74 | 0 | 0.0 | 0.0 | 0.00 | 0.00 | 0.00 | 71 | 1014.4 |
| 20260831100105 | 74 | 0 | 0.0 | 0.0 | 0.00 | 0.00 | 0.00 | 70 | 1014.3 |
| 20260831094603 | 75 | 0 | 0.0 | 0.0 | 0.00 | 0.00 | 0.00 | 69 | 1014.3 |
| 20260831093101 | 75 | 0 | 0.0 | 0.0 | 0.00 | 0.00 | 0.00 | 68 | 1014.2 |
| 20260831091603 | 76 | 0 | 0.0 | 0.0 | 0.00 | 0.00 | 0.00 | 67 | 1014.0 |
| 20260831090100 | 76 | 0 | 0.0 | 0.0 | 0.00 | 0.00 | 0.00 | 66 | 1014.0 |
| 20260831084611 | 77 | 0 | 0.0 | 1.0 | 0.00 | 0.00 | 0.00 | 65 | 1014.0 |
| 20260831083111 | 77 | 0 | 0.0 | 0.0 | 0.00 | 0.00 | 0.00 | 65 | 1013.9 |
| 20260831081608 | 77 | 117 | 0.0 | 2.0 | 0.00 | 0.00 | 0.00 | 64 | 1013.8 |
| 20260831080104 | 77 | 0 | 0.0 | 1.0 | 0.00 | 0.00 | 0.00 | 64 | 1013.7 |
| 20260831074616 | 77 | 0 | 0.0 | 1.0 | 0.00 | 0.00 | 0.00 | 64 | 1013.7 |
| 20260831073110 | 77 | 0 | 0.0 | 0.0 | 0.00 | 0.00 | 0.00 | 64 | 1013.7 |
| 20260831071603 | 78 | 0 | 0.0 | 0.0 | 0.00 | 0.00 | 0.00 | 63 | 1013.7 |
| 20260831070106 | 78 | 0 | 0.0 | 0.0 | 0.00 | 0.00 | 0.00 | 61 | 1013.7 |
| 20260831064607 | 79 | 0 | 0.0 | 1.0 | 0.00 | 0.00 | 0.00 | 60 | 1013.7 |
| 20260831063058 | 80 | 0 | 0.0 | 1.0 | 0.00 | 0.00 | 0.00 | 59 | 1013.7 |
| 20260831061608 | 80 | 0 | 0.0 | 1.0 | 0.00 | 0.00 | 0.00 | 58 | 1013.6 |
| 20260831060113 | 80 | 0 | 0.0 | 2.0 | 0.00 | 0.00 | 0.00 | 58 | 1013.6 |
| 20260831054605 | 80 | 0 | 0.0 | 3.0 | 0.00 | 0.00 | 0.00 | 57 | 1013.5 |
| 20260831053108 | 80 | 123 | 0.0 | 2.0 | 0.00 | 0.00 | 0.00 | 57 | 1013.4 |
| 20260831051612 | 80 | 0 | 0.0 | 2.0 | 0.00 | 0.00 | 0.00 | 59 | 1013.4 |
| 20260831050118 | 80 | 0 | 0.0 | 0.0 | 0.00 | 0.00 | 0.00 | 59 | 1013.2 |
| 20260831044616 | 80 | 0 | 0.0 | 0.0 | 0.00 | 0.00 | 0.00 | 59 | 1013.1 |
| 20260831043110 | 81 | 0 | 0.0 | 0.0 | 0.00 | 0.00 | 0.00 | 59 | 1013.0 |
| 20260831041604 | 81 | 0 | 0.0 | 0.0 | 0.00 | 0.00 | 0.00 | 59 | 1013.0 |
| 20260831034607 | 83 | 0 | 0.0 | 0.0 | 0.00 | 0.00 | 0.00 | 56 | 1012.9 |
| 20260831033119 | 84 | 0 | 0.0 | 0.0 | 0.00 | 0.00 | 0.00 | 52 | 1012.9 |
| 20260831031602 | 85 | 0 | 0.0 | 0.0 | 0.00 | 0.00 | 0.00 | 50 | 1012.8 |
| 20260831030104 | 86 | 0 | 0.0 | 1.0 | 0.00 | 0.00 | 0.00 | 49 | 1012.6 |
| 20260831024621 | 87 | 0 | 0.0 | 2.0 | 0.00 | 0.00 | 0.00 | 48 | 1012.4 |
| 20260831023103 | 88 | 0 | 0.0 | 2.0 | 0.00 | 0.00 | 0.00 | 46 | 1012.3 |
| 20260831021609 | 89 | 0 | 0.0 | 2.0 | 0.00 | 0.00 | 0.00 | 45 | 1012.0 |
| 20260831020116 | 89 | 0 | 0.0 | 2.0 | 0.00 | 0.00 | 0.00 | 44 | 1011.9 |
| 20260831014609 | 90 | 0 | 0.0 | 2.0 | 0.00 | 0.00 | 0.00 | 43 | 1011.8 |
| 20260831013107 | 92 | 0 | 0.0 | 3.0 | 0.00 | 0.00 | 0.00 | 41 | 1011.6 |
| 20260831011604 | 93 | 0 | 0.0 | 3.0 | 0.00 | 0.00 | 0.00 | 39 | 1011.4 |